Robertsville, Ohio
Current Conditions -  °F | °C
As of 2:51 PM on Thursday 29 Jan 2015 (Local Time) from KCAK Reporting Station
Overcast Overcast  
Wind Chill: 28°   Ceiling: 2500
Heat Index: 37°   Visibility: 9mi
Dew Point: 30°   Wind: 14mph
Humidity: 76%   Direction: 220°SW
Pressure: 29.74"   Gusts: NA
Location:  40.76°N, 81.19°W
Report Text: KCAK 291951Z 22012KT 9SM OVC025 03/M01 A2974 RMK AO2 SLP083 SNB14E50 P0000 T00281011 $
Loading
Personal Weather Stations






























Interactive Weather Map New forecast layout! Learn more

10-Day Weather Forecast

Advertisements
Track Severe Weather on mobile